地図

経路データ

SID SEASON NUMBER BASIN SUBBASIN NAME ISO_TIME NATURE LAT LON WMO_WIND WMO_PRES WMO_AGENCY TRACK_TYPE DIST2LAND LANDFALL IFLAG USA_AGENCY USA_ATCF_ID USA_LAT USA_LON USA_RECORD USA_STATUS USA_WIND USA_PRES USA_SSHS USA_R34_NE USA_R34_SE USA_R34_SW USA_R34_NW USA_R50_NE USA_R50_SE USA_R50_SW USA_R50_NW USA_R64_NE USA_R64_SE USA_R64_SW USA_R64_NW USA_POCI USA_ROCI USA_RMW USA_EYE TOKYO_LAT TOKYO_LON TOKYO_GRADE TOKYO_WIND TOKYO_PRES TOKYO_R50_DIR TOKYO_R50_LONG TOKYO_R50_SHORT TOKYO_R30_DIR TOKYO_R30_LONG TOKYO_R30_SHORT TOKYO_LAND CMA_LAT CMA_LON CMA_CAT CMA_WIND CMA_PRES HKO_LAT HKO_LON HKO_CAT HKO_WIND HKO_PRES NEWDELHI_LAT NEWDELHI_LON NEWDELHI_GRADE NEWDELHI_WIND NEWDELHI_PRES NEWDELHI_CI NEWDELHI_DP NEWDELHI_POCI REUNION_LAT REUNION_LON REUNION_TYPE REUNION_WIND REUNION_PRES REUNION_TNUM REUNION_CI REUNION_RMW REUNION_R34_NE REUNION_R34_SE REUNION_R34_SW REUNION_R34_NW REUNION_R50_NE REUNION_R50_SE REUNION_R50_SW REUNION_R50_NW REUNION_R64_NE REUNION_R64_SE REUNION_R64_SW REUNION_R64_NW BOM_LAT BOM_LON BOM_TYPE BOM_WIND BOM_PRES BOM_TNUM BOM_CI BOM_RMW BOM_R34_NE BOM_R34_SE BOM_R34_SW BOM_R34_NW BOM_R50_NE BOM_R50_SE BOM_R50_SW BOM_R50_NW BOM_R64_NE BOM_R64_SE BOM_R64_SW BOM_R64_NW BOM_ROCI BOM_POCI BOM_EYE BOM_POS_METHOD BOM_PRES_METHOD NADI_LAT NADI_LON NADI_CAT NADI_WIND NADI_PRES WELLINGTON_LAT WELLINGTON_LON WELLINGTON_WIND WELLINGTON_PRES DS824_LAT DS824_LON DS824_STAGE DS824_WIND DS824_PRES TD9636_LAT TD9636_LON TD9636_STAGE TD9636_WIND TD9636_PRES TD9635_LAT TD9635_LON TD9635_WIND TD9635_PRES TD9635_ROCI NEUMANN_LAT NEUMANN_LON NEUMANN_CLASS NEUMANN_WIND NEUMANN_PRES MLC_LAT MLC_LON MLC_CLASS MLC_WIND MLC_PRES USA_GUST BOM_GUST BOM_GUST_PER REUNION_GUST REUNION_GUST_PER USA_SEAHGT USA_SEARAD_NE USA_SEARAD_SE USA_SEARAD_SW USA_SEARAD_NW STORM_SPEED STORM_DIR
1976219N26287 1976 87 NA NA BELLE 1976-08-06 06:00:00 TS 26.0000 -72.8000 25 1012 hurdat_atl main 520 518 O_____________ hurdat_atl AL071976 26.0000 -72.8000 TD 25 1012 -1 4 347
1976219N26287 1976 87 NA NA BELLE 1976-08-06 09:00:00 TS 26.2074 -72.8648 main 518 512 P_____________ AL071976 26.2074 -72.8648 TD 25 1012 -1 4 329
1976219N26287 1976 87 NA NA BELLE 1976-08-06 12:00:00 TS 26.3000 -73.0000 25 1012 hurdat_atl main 512 490 O_____________ hurdat_atl AL071976 26.3000 -73.0000 TD 25 1012 -1 3 269
1976219N26287 1976 87 NA NA BELLE 1976-08-06 15:00:00 TS 26.2026 -73.2303 main 490 463 P_____________ AL071976 26.2026 -73.2303 TD 27 1010 -1 5 230
1976219N26287 1976 87 NA NA BELLE 1976-08-06 18:00:00 TS 26.0000 -73.4000 30 1009 hurdat_atl main 463 456 O_____________ hurdat_atl AL071976 26.0000 -73.4000 TD 30 1009 -1 5 191
1976219N26287 1976 87 NA NA BELLE 1976-08-06 21:00:00 TS 25.7475 -73.3297 main 462 459 P_____________ AL071976 25.7475 -73.3297 TD 35 1007 0 4 156
1976219N26287 1976 87 NA NA BELLE 1976-08-07 00:00:00 TS 25.6000 -73.2000 40 1005 hurdat_atl main 469 469 O_____________ hurdat_atl AL071976 25.6000 -73.2000 TS 40 1005 0 2 87
1976219N26287 1976 87 NA NA BELLE 1976-08-07 03:00:00 TS 25.7549 -73.1477 main 484 478 P_____________ AL071976 25.7549 -73.1477 TS 42 1002 0 4 0
1976219N26287 1976 87 NA NA BELLE 1976-08-07 06:00:00 TS 26.0000 -73.2000 45 1000 hurdat_atl main 482 467 O_____________ hurdat_atl AL071976 26.0000 -73.2000 TS 45 1000 0 4 326
1976219N26287 1976 87 NA NA BELLE 1976-08-07 09:00:00 TS 26.1001 -73.4126 main 467 444 P_____________ AL071976 26.1001 -73.4126 TS 50 996 0 5 294
1976219N26287 1976 87 NA NA BELLE 1976-08-07 12:00:00 TS 26.2000 -73.7000 55 993 hurdat_atl main 444 429 O_____________ hurdat_atl AL071976 26.2000 -73.7000 TS 55 993 0 6 301
1976219N26287 1976 87 NA NA BELLE 1976-08-07 15:00:00 TS 26.3925 -73.9574 main 425 415 P_____________ AL071976 26.3925 -73.9574 TS 62 989 0 6 312
1976219N26287 1976 87 NA NA BELLE 1976-08-07 18:00:00 TS 26.6000 -74.2000 70 985 hurdat_atl main 415 401 O_____________ hurdat_atl AL071976 26.6000 -74.2000 HU 70 985 1 5 312
1976219N26287 1976 87 NA NA BELLE 1976-08-07 21:00:00 TS 26.7424 -74.4002 main 401 394 P_____________ AL071976 26.7424 -74.4002 HU 75 978 1 5 310
1976219N26287 1976 87 NA NA BELLE 1976-08-08 00:00:00 TS 26.9000 -74.6000 80 972 hurdat_atl main 394 381 O_____________ hurdat_atl AL071976 26.9000 -74.6000 HU 80 972 1 6 311
1976219N26287 1976 87 NA NA BELLE 1976-08-08 03:00:00 TS 27.1201 -74.8797 main 381 379 P_____________ AL071976 27.1201 -74.8797 HU 85 967 2 7 318
1976219N26287 1976 87 NA NA BELLE 1976-08-08 06:00:00 TS 27.4000 -75.1000 90 962 hurdat_atl main 386 386 O_____________ hurdat_atl AL071976 27.4000 -75.1000 HU 90 962 2 6 339
1976219N26287 1976 87 NA NA BELLE 1976-08-08 09:00:00 TS 27.6824 -75.1230 main 409 409 P_____________ AL071976 27.6824 -75.1230 HU 92 960 2 7 0
1976219N26287 1976 87 NA NA BELLE 1976-08-08 12:00:00 TS 28.1000 -75.1000 95 959 hurdat_atl main 441 441 O_____________ hurdat_atl AL071976 28.1000 -75.1000 HU 95 959 2 11 356
1976219N26287 1976 87 NA NA BELLE 1976-08-08 15:00:00 TS 28.7476 -75.1995 main 488 488 P_____________ AL071976 28.7476 -75.1995 HU 97 958 3 14 353
1976219N26287 1976 87 NA NA BELLE 1976-08-08 18:00:00 TS 29.5000 -75.3000 100 958 hurdat_atl main 517 494 O_____________ hurdat_atl AL071976 29.5000 -75.3000 HU 100 958 3 14 356
1976219N26287 1976 87 NA NA BELLE 1976-08-08 21:00:00 TS 30.1850 -75.3226 main 484 419 P_____________ AL071976 30.1850 -75.3226 HU 102 957 3 14 0
1976219N26287 1976 87 NA NA BELLE 1976-08-09 00:00:00 TS 30.9000 -75.3000 105 957 hurdat_atl main 419 359 O_____________ hurdat_atl AL071976 30.9000 -75.3000 HU 105 957 3 15 1
1976219N26287 1976 87 NA NA BELLE 1976-08-09 03:00:00 TS 31.6624 -75.2867 main 351 273 P_____________ AL071976 31.6624 -75.2867 HU 105 958 3 16 3
1976219N26287 1976 87 NA NA BELLE 1976-08-09 06:00:00 TS 32.5000 -75.2000 105 959 hurdat_atl main 273 200 O_____________ hurdat_atl AL071976 32.5000 -75.2000 HU 105 959 3 18 8
1976219N26287 1976 87 NA NA BELLE 1976-08-09 09:00:00 TS 33.4051 -74.9803 main 200 157 P_____________ AL071976 33.4051 -74.9803 HU 100 961 3 20 12
1976219N26287 1976 87 NA NA BELLE 1976-08-09 12:00:00 TS 34.4000 -74.7000 95 963 hurdat_atl main 156 100 O_____________ hurdat_atl AL071976 34.4000 -74.7000 HU 95 963 2 21 12
1976219N26287 1976 87 NA NA BELLE 1976-08-09 15:00:00 TS 35.4775 -74.4423 main 104 98 P_____________ AL071976 35.4775 -74.4423 HU 92 966 2 22 10
1976219N26287 1976 87 NA NA BELLE 1976-08-09 18:00:00 TS 36.6000 -74.2000 90 970 hurdat_atl main 141 123 O_____________ hurdat_atl AL071976 36.6000 -74.2000 HU 90 970 2 23 9
1976219N26287 1976 87 NA NA BELLE 1976-08-09 21:00:00 TS 37.6998 -74.0059 main 117 88 P_____________ AL071976 37.6998 -74.0059 HU 85 973 2 22 8
1976219N26287 1976 87 NA NA BELLE 1976-08-10 00:00:00 TS 38.8000 -73.8000 80 977 hurdat_atl main 84 47 O_____________ hurdat_atl AL071976 38.8000 -73.8000 HU 80 977 1 23 9
1976219N26287 1976 87 NA NA BELLE 1976-08-10 03:00:00 TS 39.9448 -73.5298 main 47 0 P_____________ AL071976 39.9448 -73.5298 HU 70 980 1 23 12
1976219N26287 1976 87 NA NA BELLE 1976-08-10 06:00:00 TS 41.0000 -73.2000 60 983 hurdat_atl main 11 0 O_____________ hurdat_atl AL071976 41.0000 -73.2000 TS 60 983 0 20 16
1976219N26287 1976 87 NA NA BELLE 1976-08-10 09:00:00 TS 41.8603 -72.8165 main 0 0 P_____________ AL071976 41.8603 -72.8165 TS 47 987 0 17 20
1976219N26287 1976 87 NA NA BELLE 1976-08-10 12:00:00 TS 42.6000 -72.4000 35 992 hurdat_atl main 0 O_____________ hurdat_atl AL071976 42.6000 -72.4000 TS 35 992 0 16 23

IBTrACS Databaseについて

本データベースは、米国NOAAが公開する1842年以降の世界の熱帯低気圧のベストトラックデータアーカイブInternational Best Track Archive for Climate Stewardship (IBTrACS)を、ウェブで閲覧しやすい形式に変換したものです。

最終更新日:2021-10-08